Observations for RAPID CITY REGIONAL, SD (RAP)

KRAP 230452Z 32013KT 10SM CLR M01/M07 A3003 RMK AO2 SLP197 T10111072
KRAP 230352Z 32013KT 10SM CLR M02/M08 A3002 RMK AO2 SLP200 T10171078
KRAP 230252Z 33013KT 10SM CLR M02/M08 A3001 RMK AO2 SLP205 T10221078 51005  
KRAP 230152Z 33011KT 10SM CLR M03/M08 A3001 RMK AO2 SLP207 T10331083
KRAP 230052Z 34011KT 10SM CLR M01/M08 A3000 RMK AO2 SLP198 T10111078
KRAP 222352Z 35012KT 10SM CLR 01/M08 A3000 RMK AO2 SLP191 T00061078 10050 20006 53018   
KRAP 222252Z 36018KT 10SM CLR 03/M07 A2997 RMK AO2 PK WND 36027/2157 SLP177 T00281072   
KRAP 222152Z 35021G24KT 10SM CLR 04/M08 A2995 RMK AO2 PK WND 36027/2140 SLP169 T00441083
KRAP 222052Z 36020KT 10SM CLR 05/M07 A2994 RMK AO2 PK WND 01026/1958 SLP162 T00501072 55011 
KRAP 221952Z 36020KT 10SM CLR 04/M08 A2993 RMK AO2 PK WND 35030/1900 SLP162 T00441083   
KRAP 221852Z 34022G31KT 10SM CLR 05/M08 A2995 RMK AO2 PK WND 34031/1849 SLP167 T00501083
KRAP 221752Z 35016G22KT 10SM CLR 03/M08 A2997 RMK AO2 SLP176 T00331083 10033 21089 58001
KRAP 221652Z 35008KT 10SM CLR 02/M09 A2998 RMK AO2 SLP180 T00221089 
KRAP 221552Z 29005KT 10SM CLR M02/M08 A2998 RMK AO2 SLP184 T10171083
KRAP 221452Z 30005KT 10SM CLR M07/M11 A2998 RMK AO2 SLP190 T10671111 52002  
KRAP 221352Z 30004KT 10SM CLR M08/M12 A2997 RMK AO2 SLP191 T10831117
KRAP 221252Z 29005KT 10SM CLR M04/M10 A2997 RMK AO2 SLP186 T10441100
KRAP 221152Z AUTO 34006KT 10SM CLR M04/M09 A2997 RMK AO2 SLP184 T10441094 11011 21044 53006 
KRAP 221052Z AUTO 34015KT 10SM CLR M02/M08 A2995 RMK AO2 SLP173 T10221083   
KRAP 220952Z AUTO 34015KT 10SM CLR M02/M08 A2995 RMK AO2 SLP171 T10221078   
KRAP 220852Z AUTO 33016KT 10SM CLR M02/M08 A2995 RMK AO2 SLP171 T10221078 56009 
KRAP 220752Z AUTO 33018KT 10SM CLR M02/M07 A2995 RMK AO2 SLP173 T10221072   
KRAP 220652Z AUTO 33018KT 10SM CLR M02/M07 A2997 RMK AO2 SLP178 T10171067 400171028 
KRAP 220552Z AUTO 34016KT 10SM CLR M02/M06 A2998 RMK AO2 SLP183 T10171061 10000 21017 56008 
KRAP 220452Z 34014KT 10SM CLR M01/M06 A2998 RMK AO2 SLP184 T10111061